createdAt,value
2023-10-15T00:00:32.589Z,6.10
2023-10-15T00:03:00.500Z,6.10
2023-10-15T00:05:28.467Z,6.00
2023-10-15T00:07:56.854Z,6.00
2023-10-15T00:10:29.432Z,6.00
2023-10-15T00:12:58.206Z,5.90
2023-10-15T00:15:30.395Z,5.80
2023-10-15T00:18:11.513Z,5.80
2023-10-15T00:20:41.809Z,5.80
2023-10-15T00:23:11.221Z,5.80
2023-10-15T00:25:43.365Z,5.80
2023-10-15T00:28:11.950Z,5.80
2023-10-15T00:30:41.991Z,5.80
2023-10-15T00:33:13.319Z,5.80
2023-10-15T00:35:47.158Z,5.80
2023-10-15T00:38:18.695Z,5.70
2023-10-15T00:40:47.910Z,5.70
2023-10-15T00:43:19.368Z,5.60
2023-10-15T00:45:48.016Z,5.50
2023-10-15T00:48:26.417Z,5.50
2023-10-15T00:50:54.655Z,5.40
2023-10-15T00:53:26.633Z,5.30
2023-10-15T00:56:11.737Z,5.20
2023-10-15T00:58:38.893Z,5.20
2023-10-15T01:01:19.467Z,5.20
2023-10-15T01:04:00.977Z,5.20
2023-10-15T01:06:35.744Z,5.30
2023-10-15T01:09:10.663Z,5.30
2023-10-15T01:11:45.970Z,5.40
2023-10-15T01:14:14.904Z,5.40
2023-10-15T01:16:42.683Z,5.40
2023-10-15T01:19:12.695Z,5.40
2023-10-15T01:21:54.606Z,5.40
2023-10-15T01:24:24.740Z,5.40
2023-10-15T01:27:01.741Z,5.40
2023-10-15T01:29:30.215Z,5.40
2023-10-15T01:32:00.452Z,5.40
2023-10-15T01:34:28.674Z,5.40
2023-10-15T01:36:58.700Z,5.50
2023-10-15T01:39:41.789Z,5.50
2023-10-15T01:42:09.206Z,5.50
2023-10-15T01:44:49.086Z,5.50
2023-10-15T01:47:16.579Z,5.50
2023-10-15T01:49:43.776Z,5.50
2023-10-15T01:52:10.907Z,5.40
2023-10-15T01:54:38.552Z,5.40
2023-10-15T01:57:08.810Z,5.40
2023-10-15T01:59:48.650Z,5.40
2023-10-15T02:02:19.827Z,5.40
2023-10-15T02:04:47.218Z,5.30
2023-10-15T02:07:17.700Z,5.30
2023-10-15T02:09:45.623Z,5.20
2023-10-15T02:12:19.809Z,5.20
2023-10-15T02:14:49.350Z,5.20
2023-10-15T02:17:20.557Z,5.20
2023-10-15T02:19:49.468Z,5.20
2023-10-15T02:22:17.236Z,5.20
2023-10-15T02:24:48.987Z,5.20
2023-10-15T02:27:28.636Z,5.20
2023-10-15T02:29:55.785Z,5.20
2023-10-15T02:32:29.827Z,5.30
2023-10-15T02:35:01.106Z,5.30
2023-10-15T02:37:28.607Z,5.30
2023-10-15T02:40:00.254Z,5.30
2023-10-15T02:42:36.162Z,5.20
2023-10-15T02:45:07.769Z,5.20
2023-10-15T02:47:49.435Z,5.20
2023-10-15T02:50:19.371Z,5.20
2023-10-15T02:52:50.085Z,5.20
2023-10-15T02:55:28.994Z,5.20
2023-10-15T02:58:02.668Z,5.20
2023-10-15T03:00:30.346Z,5.10
2023-10-15T03:02:57.735Z,5.10
2023-10-15T03:05:31.945Z,5.00
2023-10-15T03:08:01.934Z,5.00
2023-10-15T03:10:49.044Z,5.00
2023-10-15T03:13:16.211Z,5.00
2023-10-15T03:15:52.610Z,5.00
2023-10-15T03:18:30.221Z,5.00
2023-10-15T03:21:16.319Z,5.00
2023-10-15T03:23:45.070Z,5.00
2023-10-15T03:26:19.171Z,5.00
2023-10-15T03:28:52.907Z,5.00
2023-10-15T03:31:29.085Z,5.00
2023-10-15T03:34:08.857Z,5.00
2023-10-15T03:36:54.720Z,5.00
2023-10-15T03:39:33.816Z,5.00
2023-10-15T03:42:16.438Z,5.10
2023-10-15T03:44:46.604Z,5.20
2023-10-15T03:47:15.476Z,5.20
2023-10-15T03:49:45.668Z,5.10
2023-10-15T03:52:16.467Z,5.20
2023-10-15T03:54:49.401Z,5.20
2023-10-15T03:57:23.933Z,5.20
2023-10-15T03:59:54.483Z,5.20
2023-10-15T04:02:27.929Z,5.30
2023-10-15T04:05:14.118Z,5.30
2023-10-15T04:07:51.133Z,5.30
2023-10-15T04:10:44.591Z,5.30
2023-10-15T04:13:11.803Z,5.40
2023-10-15T04:15:38.924Z,5.30
2023-10-15T04:18:06.210Z,5.30
2023-10-15T04:20:42.418Z,5.30
2023-10-15T04:23:14.823Z,5.30
2023-10-15T04:25:42.054Z,5.40
2023-10-15T04:28:15.908Z,5.40
2023-10-15T04:30:44.060Z,5.40
2023-10-15T04:33:15.199Z,5.40
2023-10-15T04:35:43.176Z,5.40
2023-10-15T04:38:10.883Z,5.40
2023-10-15T04:41:04.299Z,5.40
2023-10-15T04:43:42.494Z,5.40
2023-10-15T04:46:09.995Z,5.40
2023-10-15T04:48:39.877Z,5.40
2023-10-15T04:51:13.455Z,5.40
2023-10-15T04:53:46.259Z,5.50
2023-10-15T04:56:14.083Z,5.50
2023-10-15T04:58:41.561Z,5.50
2023-10-15T05:01:09.850Z,5.50
2023-10-15T05:03:40.321Z,5.50
2023-10-15T05:06:12.493Z,5.50
2023-10-15T05:08:41.979Z,5.40
2023-10-15T05:11:10.414Z,5.50
2023-10-15T05:13:37.711Z,5.50
2023-10-15T05:16:05.621Z,5.50
2023-10-15T05:18:34.220Z,5.50
2023-10-15T05:21:04.487Z,5.50
2023-10-15T05:23:31.672Z,5.50
2023-10-15T05:25:58.940Z,5.50
2023-10-15T05:28:28.035Z,5.50
2023-10-15T05:30:55.454Z,5.50
2023-10-15T05:33:23.634Z,5.50
2023-10-15T05:35:50.857Z,5.50
2023-10-15T05:38:18.795Z,5.50
2023-10-15T05:40:46.551Z,5.60
2023-10-15T05:43:13.961Z,5.60
2023-10-15T05:45:41.210Z,5.60
2023-10-15T05:48:08.752Z,5.60
2023-10-15T05:50:36.110Z,5.60
2023-10-15T05:53:03.797Z,5.70
2023-10-15T05:55:33.791Z,5.70
2023-10-15T05:58:01.254Z,5.70
2023-10-15T06:00:28.544Z,5.70
2023-10-15T06:02:57.582Z,5.70
2023-10-15T06:05:25.269Z,5.70
2023-10-15T06:07:52.757Z,5.70
2023-10-15T06:10:20.128Z,5.70
2023-10-15T06:12:47.304Z,5.70
2023-10-15T06:15:18.560Z,5.70
2023-10-15T06:17:48.746Z,5.80
2023-10-15T06:20:20.762Z,5.80
2023-10-15T06:22:51.506Z,5.80
2023-10-15T06:25:19.355Z,5.80
2023-10-15T06:27:47.054Z,5.80
2023-10-15T06:30:20.320Z,5.80
2023-10-15T06:32:54.324Z,5.80
2023-10-15T06:35:24.352Z,5.80
2023-10-15T06:37:53.725Z,5.90
2023-10-15T06:40:24.362Z,5.90
2023-10-15T06:43:01.994Z,5.80
2023-10-15T06:45:30.925Z,5.90
2023-10-15T06:47:58.557Z,6.00
2023-10-15T06:50:27.447Z,6.00
2023-10-15T06:52:56.391Z,6.10
2023-10-15T06:55:26.192Z,6.10
2023-10-15T06:57:54.882Z,6.10
2023-10-15T07:00:25.090Z,6.10
2023-10-15T07:02:56.985Z,6.20
2023-10-15T07:05:27.977Z,6.20
2023-10-15T07:08:00.322Z,6.20
2023-10-15T07:10:29.566Z,6.20
2023-10-15T07:12:57.721Z,6.20
2023-10-15T07:15:25.854Z,6.10
2023-10-15T07:17:53.769Z,6.10
2023-10-15T07:20:26.884Z,6.10
2023-10-15T07:23:06.112Z,6.10
2023-10-15T07:25:34.849Z,6.10
2023-10-15T07:28:04.429Z,6.10
2023-10-15T07:30:32.504Z,6.10
2023-10-15T07:33:00.730Z,6.20
2023-10-15T07:35:30.247Z,6.10
2023-10-15T07:37:58.512Z,6.20
2023-10-15T07:40:29.327Z,6.30
2023-10-15T07:43:01.348Z,6.40
2023-10-15T07:45:31.229Z,6.60
2023-10-15T07:48:03.442Z,6.60
2023-10-15T07:50:38.582Z,6.50
2023-10-15T07:53:08.794Z,6.50
2023-10-15T07:55:38.631Z,6.40
2023-10-15T07:58:07.642Z,6.40
2023-10-15T08:00:37.103Z,6.40
2023-10-15T08:03:10.716Z,6.40
2023-10-15T08:05:41.392Z,6.50
2023-10-15T08:08:10.102Z,6.50
2023-10-15T08:10:44.748Z,6.60
2023-10-15T08:13:12.203Z,6.80
2023-10-15T08:15:40.564Z,6.80
2023-10-15T08:18:08.428Z,6.80
2023-10-15T08:20:36.069Z,6.80
2023-10-15T08:23:03.899Z,7.00
2023-10-15T08:25:35.824Z,7.20
2023-10-15T08:28:04.436Z,7.20
2023-10-15T08:30:36.604Z,7.10
2023-10-15T08:33:10.242Z,7.00
2023-10-15T08:35:38.354Z,7.00
2023-10-15T08:38:09.189Z,7.00
2023-10-15T08:40:42.986Z,7.00
2023-10-15T08:43:21.507Z,6.90
2023-10-15T08:45:50.572Z,6.90
2023-10-15T08:48:19.159Z,7.00
2023-10-15T08:50:47.880Z,6.90
2023-10-15T08:53:15.485Z,6.90
2023-10-15T08:55:42.930Z,7.00
2023-10-15T08:58:10.988Z,7.00
2023-10-15T09:00:40.759Z,7.10
2023-10-15T09:03:08.536Z,7.20
2023-10-15T09:05:39.087Z,7.20
2023-10-15T09:08:10.396Z,7.20
2023-10-15T09:10:42.245Z,7.10
2023-10-15T09:13:16.189Z,7.10
2023-10-15T09:15:47.909Z,7.00
2023-10-15T09:18:17.687Z,7.10
2023-10-15T09:20:53.329Z,7.10
2023-10-15T09:23:24.859Z,7.10
2023-10-15T09:25:57.464Z,7.20
2023-10-15T09:28:30.111Z,7.40
2023-10-15T09:31:13.027Z,7.40
2023-10-15T09:33:41.108Z,7.50
2023-10-15T09:36:08.828Z,7.40
2023-10-15T09:38:36.894Z,7.40
2023-10-15T09:41:04.810Z,7.40
2023-10-15T09:43:32.907Z,7.70
2023-10-15T09:46:00.659Z,8.10
2023-10-15T09:48:28.535Z,8.20
2023-10-15T09:51:01.316Z,8.30
2023-10-15T09:53:30.396Z,8.40
2023-10-15T09:55:59.474Z,8.30
2023-10-15T09:58:28.741Z,8.10
2023-10-15T10:01:27.696Z,8.20
2023-10-15T10:04:25.122Z,8.40
2023-10-15T10:07:14.351Z,8.50
2023-10-15T10:10:20.246Z,8.60
2023-10-15T10:12:59.101Z,8.40
2023-10-15T10:15:36.335Z,8.20
2023-10-15T10:18:05.319Z,8.20
2023-10-15T10:20:40.995Z,8.20
2023-10-15T10:23:09.444Z,8.10
2023-10-15T10:25:47.947Z,8.20
2023-10-15T10:28:19.332Z,8.30
2023-10-15T10:30:54.579Z,8.20
2023-10-15T10:33:47.566Z,8.00
2023-10-15T10:36:18.765Z,8.20
2023-10-15T10:39:02.614Z,8.40
2023-10-15T10:41:45.300Z,8.50
2023-10-15T10:44:41.614Z,8.60
2023-10-15T10:47:30.038Z,8.40
2023-10-15T10:50:02.678Z,8.30
2023-10-15T10:52:43.050Z,8.20
2023-10-15T10:55:33.259Z,8.20
2023-10-15T10:58:07.040Z,8.30
2023-10-15T11:00:35.353Z,8.50
2023-10-15T11:03:08.880Z,8.70
2023-10-15T11:05:36.969Z,9.00
2023-10-15T11:08:04.802Z,9.50
2023-10-15T11:10:33.906Z,9.70
2023-10-15T11:13:01.674Z,9.60
2023-10-15T11:15:29.540Z,9.50
2023-10-15T11:18:01.064Z,9.30
2023-10-15T11:20:28.907Z,9.10
2023-10-15T11:22:56.676Z,8.80
2023-10-15T11:25:24.957Z,8.70
2023-10-15T11:27:53.427Z,8.50
2023-10-15T11:30:24.215Z,8.40
2023-10-15T11:32:53.206Z,8.00
2023-10-15T11:35:21.100Z,7.90
2023-10-15T11:37:57.917Z,7.60
2023-10-15T11:40:32.788Z,7.40
2023-10-15T11:43:08.110Z,7.60
2023-10-15T11:45:39.889Z,8.10
2023-10-15T11:48:13.799Z,7.90
2023-10-15T11:50:48.237Z,8.00
2023-10-15T11:53:29.066Z,8.40
2023-10-15T11:55:59.236Z,8.60
2023-10-15T11:58:28.636Z,9.10
2023-10-15T12:00:57.878Z,9.40
2023-10-15T12:03:27.222Z,9.60
2023-10-15T12:05:55.828Z,9.80
2023-10-15T12:08:23.295Z,10.00
2023-10-15T12:10:51.136Z,10.10
2023-10-15T12:13:18.769Z,10.30
2023-10-15T12:15:46.425Z,10.30
2023-10-15T12:18:14.776Z,10.60
2023-10-15T12:20:42.246Z,11.00
2023-10-15T12:23:09.905Z,11.20
2023-10-15T12:25:40.056Z,11.50
2023-10-15T12:28:09.562Z,11.50
2023-10-15T12:30:37.080Z,11.50
2023-10-15T12:33:04.920Z,11.30
2023-10-15T12:35:32.893Z,10.80
2023-10-15T12:38:06.678Z,10.60
2023-10-15T12:40:38.484Z,10.30
2023-10-15T12:43:16.978Z,10.00
2023-10-15T12:45:47.740Z,10.00
2023-10-15T12:48:17.498Z,10.40
2023-10-15T12:50:45.028Z,10.50
2023-10-15T12:53:12.621Z,10.40
2023-10-15T12:55:40.266Z,10.20
2023-10-15T12:58:10.941Z,9.60
2023-10-15T13:00:45.291Z,9.20
2023-10-15T13:03:14.196Z,9.10
2023-10-15T13:05:44.224Z,8.80
2023-10-15T13:08:12.413Z,8.60
2023-10-15T13:10:40.166Z,8.40
2023-10-15T13:13:17.492Z,8.30
2023-10-15T13:15:44.879Z,8.80
2023-10-15T13:18:12.889Z,9.00
2023-10-15T13:20:40.764Z,9.10
2023-10-15T13:23:07.925Z,9.20
2023-10-15T13:25:37.428Z,9.50
2023-10-15T13:28:05.355Z,9.90
2023-10-15T13:30:32.900Z,10.30
2023-10-15T13:33:03.147Z,10.70
2023-10-15T13:35:30.899Z,10.70
2023-10-15T13:37:59.811Z,10.80
2023-10-15T13:40:27.030Z,10.50
2023-10-15T13:42:54.446Z,10.80
2023-10-15T13:45:21.713Z,10.90
2023-10-15T13:47:48.943Z,11.10
2023-10-15T13:50:19.214Z,11.10
2023-10-15T13:52:48.119Z,11.20
2023-10-15T13:55:17.252Z,11.30
2023-10-15T13:57:45.062Z,11.40
2023-10-15T14:00:15.270Z,11.40
2023-10-15T14:02:43.604Z,11.50
2023-10-15T14:05:16.149Z,11.60
2023-10-15T14:07:47.721Z,11.70
2023-10-15T14:10:19.339Z,11.80
2023-10-15T14:12:48.591Z,12.00
2023-10-15T14:15:17.836Z,12.10
2023-10-15T14:17:47.240Z,12.00
2023-10-15T14:20:18.611Z,12.00
2023-10-15T14:22:49.542Z,12.00
2023-10-15T14:25:16.818Z,11.90
2023-10-15T14:27:46.642Z,11.60
2023-10-15T14:30:14.318Z,11.40
2023-10-15T14:32:42.249Z,11.60
2023-10-15T14:35:12.921Z,11.60
2023-10-15T14:37:42.921Z,11.00
2023-10-15T14:40:12.380Z,10.40
2023-10-15T14:42:41.356Z,10.20
2023-10-15T14:45:13.227Z,10.40
2023-10-15T14:47:41.857Z,10.60
2023-10-15T14:50:12.015Z,10.60
2023-10-15T14:52:40.621Z,10.70
2023-10-15T14:55:08.440Z,10.70
2023-10-15T14:57:36.936Z,10.80
2023-10-15T15:00:07.595Z,10.90
2023-10-15T15:02:35.337Z,10.60
2023-10-15T15:05:02.647Z,10.60
2023-10-15T15:07:30.084Z,10.70
2023-10-15T15:09:57.336Z,10.70
2023-10-15T15:12:24.944Z,10.60
2023-10-15T15:14:52.073Z,10.70
2023-10-15T15:17:19.751Z,10.70
2023-10-15T15:19:47.734Z,10.70
2023-10-15T15:22:15.042Z,10.50
2023-10-15T15:24:43.694Z,10.30
2023-10-15T15:27:12.637Z,10.20
2023-10-15T15:29:40.076Z,10.00
2023-10-15T15:32:08.942Z,9.80
2023-10-15T15:34:37.097Z,9.60
2023-10-15T15:37:08.084Z,9.50
2023-10-15T15:39:36.555Z,9.40
2023-10-15T15:42:04.045Z,9.40
2023-10-15T15:44:31.610Z,9.40
2023-10-15T15:46:59.193Z,9.40
2023-10-15T15:49:29.815Z,9.20
2023-10-15T15:51:59.990Z,9.00
2023-10-15T15:54:29.951Z,8.90
2023-10-15T15:56:57.578Z,8.80
2023-10-15T15:59:25.088Z,8.60
2023-10-15T16:01:54.197Z,8.50
2023-10-15T16:04:21.852Z,8.40
2023-10-15T16:06:49.134Z,8.40
2023-10-15T16:09:16.670Z,8.30
2023-10-15T16:11:44.206Z,8.20
2023-10-15T16:14:11.608Z,8.20
2023-10-15T16:16:39.195Z,8.10
2023-10-15T16:19:08.916Z,8.00
2023-10-15T16:21:36.442Z,7.90
2023-10-15T16:24:04.188Z,7.90
2023-10-15T16:26:35.368Z,7.80
2023-10-15T16:29:02.957Z,7.70
2023-10-15T16:31:30.813Z,7.70
2023-10-15T16:33:58.522Z,7.60
2023-10-15T16:36:26.104Z,7.50
2023-10-15T16:38:55.155Z,7.40
2023-10-15T16:41:22.751Z,7.30
2023-10-15T16:43:50.258Z,7.30
2023-10-15T16:46:20.115Z,7.20
2023-10-15T16:48:48.936Z,7.10
2023-10-15T16:51:25.216Z,7.10
2023-10-15T16:53:54.979Z,7.00
2023-10-15T16:56:23.086Z,7.00
2023-10-15T16:58:51.101Z,6.90
2023-10-15T17:01:20.202Z,6.90
2023-10-15T17:03:47.948Z,6.80
2023-10-15T17:06:15.162Z,6.90
2023-10-15T17:08:42.877Z,6.80
2023-10-15T17:11:12.049Z,6.80
2023-10-15T17:13:40.706Z,6.70
2023-10-15T17:16:11.041Z,6.70
2023-10-15T17:18:38.299Z,6.70
2023-10-15T17:21:05.652Z,6.60
2023-10-15T17:23:35.233Z,6.60
2023-10-15T17:26:03.319Z,6.60
2023-10-15T17:28:30.513Z,6.50
2023-10-15T17:30:57.944Z,6.50
2023-10-15T17:33:27.106Z,6.50
2023-10-15T17:35:55.081Z,6.50
2023-10-15T17:38:23.612Z,6.50
2023-10-15T17:40:52.180Z,6.50
2023-10-15T17:43:19.818Z,6.50
2023-10-15T17:45:50.410Z,6.60
2023-10-15T17:48:18.028Z,6.60
2023-10-15T17:50:55.052Z,6.60
2023-10-15T17:53:25.099Z,6.60
2023-10-15T17:55:52.821Z,6.60
2023-10-15T17:58:21.312Z,6.50
2023-10-15T18:00:54.075Z,6.50
2023-10-15T18:03:33.280Z,6.50
2023-10-15T18:06:02.134Z,6.30
2023-10-15T18:08:34.207Z,6.30
2023-10-15T18:11:01.614Z,6.30
2023-10-15T18:13:29.162Z,6.20
2023-10-15T18:15:57.082Z,6.20
2023-10-15T18:18:24.639Z,6.20
2023-10-15T18:20:52.745Z,6.20
2023-10-15T18:23:20.077Z,6.20
2023-10-15T18:25:47.324Z,6.10
2023-10-15T18:28:15.442Z,6.10
2023-10-15T18:30:43.037Z,6.10
2023-10-15T18:33:13.974Z,6.10
2023-10-15T18:35:41.610Z,6.00
2023-10-15T18:38:09.152Z,6.10
2023-10-15T18:40:38.916Z,6.10
2023-10-15T18:43:06.403Z,6.10
2023-10-15T18:45:37.211Z,6.00
2023-10-15T18:48:07.452Z,6.00
2023-10-15T18:50:35.004Z,6.00
2023-10-15T18:53:04.989Z,6.10
2023-10-15T18:55:34.777Z,6.10
2023-10-15T18:58:02.930Z,6.10
2023-10-15T19:00:30.650Z,6.10
2023-10-15T19:02:58.074Z,6.10
2023-10-15T19:05:25.699Z,6.10
2023-10-15T19:07:53.278Z,6.10
2023-10-15T19:10:20.767Z,6.00
2023-10-15T19:12:50.048Z,6.00
2023-10-15T19:15:17.792Z,6.00
2023-10-15T19:17:45.393Z,6.00
2023-10-15T19:20:13.096Z,6.00
2023-10-15T19:22:42.762Z,6.00
2023-10-15T19:25:12.125Z,5.90
2023-10-15T19:27:39.689Z,5.90
2023-10-15T19:30:08.370Z,5.80
2023-10-15T19:32:36.003Z,5.80
2023-10-15T19:35:06.392Z,5.80
2023-10-15T19:37:34.060Z,5.80
2023-10-15T19:40:06.245Z,5.80
2023-10-15T19:42:39.761Z,5.80
2023-10-15T19:45:09.609Z,5.80
2023-10-15T19:47:45.369Z,5.80
2023-10-15T19:53:54.865Z,5.80
2023-10-15T19:56:22.338Z,5.70
2023-10-15T19:58:49.738Z,5.70
2023-10-15T20:01:17.160Z,5.70
2023-10-15T20:04:02.742Z,5.60
2023-10-15T20:06:37.636Z,5.60
2023-10-15T20:09:11.633Z,5.60
2023-10-15T20:11:46.051Z,5.60
2023-10-15T20:14:17.606Z,5.50
2023-10-15T20:16:45.185Z,5.50
2023-10-15T20:19:13.567Z,5.60
2023-10-15T20:21:42.652Z,5.50
2023-10-15T20:24:10.351Z,5.60
2023-10-15T20:26:39.160Z,5.50
2023-10-15T20:29:08.156Z,5.40
2023-10-15T20:31:36.655Z,5.40
2023-10-15T20:34:05.621Z,5.40
2023-10-15T20:36:37.912Z,5.30
2023-10-15T20:39:08.511Z,5.30
2023-10-15T20:41:37.146Z,5.20
2023-10-15T20:44:05.585Z,5.20
2023-10-15T20:46:39.759Z,5.20
2023-10-15T20:49:07.885Z,5.10
2023-10-15T20:51:38.809Z,5.20
2023-10-15T20:54:08.364Z,5.10
2023-10-15T20:56:42.193Z,5.10
2023-10-15T20:59:12.069Z,5.10
2023-10-15T21:01:42.472Z,5.10
2023-10-15T21:04:10.208Z,5.10
2023-10-15T21:06:37.807Z,5.20
2023-10-15T21:09:05.709Z,5.20
2023-10-15T21:11:38.403Z,5.20
2023-10-15T21:14:05.961Z,5.20
2023-10-15T21:16:34.964Z,5.20
2023-10-15T21:19:02.483Z,5.20
2023-10-15T21:21:30.036Z,5.20
2023-10-15T21:23:57.654Z,5.20
2023-10-15T21:26:24.978Z,5.20
2023-10-15T21:28:52.694Z,5.10
2023-10-15T21:31:19.996Z,5.10
2023-10-15T21:33:48.309Z,5.00
2023-10-15T21:36:15.566Z,5.00
2023-10-15T21:38:42.997Z,5.00
2023-10-15T21:41:10.601Z,5.00
2023-10-15T21:43:38.067Z,4.80
2023-10-15T21:46:09.842Z,4.70
2023-10-15T21:48:37.600Z,4.60
2023-10-15T21:51:05.501Z,4.60
2023-10-15T21:53:33.212Z,4.60
2023-10-15T21:56:00.629Z,4.60
2023-10-15T21:58:28.645Z,4.70
2023-10-15T22:00:57.860Z,4.70
2023-10-15T22:03:25.364Z,4.70
2023-10-15T22:05:52.703Z,4.70
2023-10-15T22:08:20.158Z,4.60
2023-10-15T22:10:47.582Z,4.50
2023-10-15T22:13:19.832Z,4.40
2023-10-15T22:15:49.322Z,4.40
2023-10-15T22:18:16.904Z,4.40
2023-10-15T22:20:50.263Z,4.30
2023-10-15T22:23:25.423Z,4.30
2023-10-15T22:25:53.503Z,4.20
2023-10-15T22:28:26.728Z,4.30
2023-10-15T22:30:54.618Z,4.20
2023-10-15T22:33:22.311Z,4.20
2023-10-15T22:35:49.772Z,4.20
2023-10-15T22:38:20.440Z,4.20
2023-10-15T22:40:51.737Z,4.20
2023-10-15T22:43:23.065Z,4.10
2023-10-15T22:45:50.594Z,4.00
2023-10-15T22:48:18.152Z,3.90
2023-10-15T22:50:46.482Z,3.80
2023-10-15T22:53:18.287Z,3.80
2023-10-15T22:55:47.041Z,3.70
2023-10-15T22:58:14.645Z,3.70
2023-10-15T23:00:42.855Z,3.70
2023-10-15T23:03:11.447Z,3.60
2023-10-15T23:05:39.374Z,3.40
2023-10-15T23:08:07.812Z,3.40
2023-10-15T23:10:39.409Z,3.40
2023-10-15T23:13:08.695Z,3.30
2023-10-15T23:15:40.283Z,3.20
2023-10-15T23:18:09.376Z,3.20
2023-10-15T23:20:41.831Z,3.10
2023-10-15T23:23:19.792Z,3.00
2023-10-15T23:25:47.497Z,3.00
2023-10-15T23:28:15.035Z,2.90
2023-10-15T23:30:45.797Z,3.00
2023-10-15T23:33:13.543Z,3.00
2023-10-15T23:35:41.144Z,3.00
2023-10-15T23:38:08.962Z,3.00
2023-10-15T23:40:37.317Z,3.00
2023-10-15T23:43:07.500Z,3.00
2023-10-15T23:45:35.014Z,3.00
2023-10-15T23:48:15.345Z,3.00
2023-10-15T23:50:46.613Z,3.00
2023-10-15T23:53:21.294Z,2.90
2023-10-15T23:55:50.488Z,2.90
2023-10-15T23:58:18.815Z,2.90
